createdAt,value
2017-01-05T00:00:31.644Z,998.06
2017-01-05T00:01:31.673Z,998.11
2017-01-05T00:02:31.697Z,998.14
2017-01-05T00:03:31.722Z,998.14
2017-01-05T00:04:31.751Z,998.09
2017-01-05T00:05:31.778Z,998.12
2017-01-05T00:06:31.802Z,998.09
2017-01-05T00:07:31.834Z,998.15
2017-01-05T00:08:31.858Z,998.12
2017-01-05T00:09:31.882Z,998.1
2017-01-05T00:10:31.910Z,998.12
2017-01-05T00:11:31.936Z,998.1
2017-01-05T00:12:31.965Z,998.07
2017-01-05T00:13:31.989Z,998.11
2017-01-05T00:14:32.018Z,998.15
2017-01-05T00:15:32.043Z,998.18
2017-01-05T00:16:32.072Z,998.18
2017-01-05T00:17:32.092Z,998.21
2017-01-05T00:18:32.124Z,998.29
2017-01-05T00:19:32.149Z,998.22
2017-01-05T00:20:32.175Z,998.23
2017-01-05T00:21:32.203Z,998.3
2017-01-05T00:22:32.229Z,998.3
2017-01-05T00:23:32.259Z,998.31
2017-01-05T00:24:32.281Z,998.29
2017-01-05T00:25:32.314Z,998.3
2017-01-05T00:26:32.334Z,998.29
2017-01-05T00:27:32.359Z,998.29
2017-01-05T00:28:32.388Z,998.32
2017-01-05T00:29:32.416Z,998.34
2017-01-05T00:30:32.437Z,998.34
2017-01-05T00:31:32.466Z,998.35
2017-01-05T00:32:32.495Z,998.32
2017-01-05T00:33:32.520Z,998.39
2017-01-05T00:34:32.543Z,998.41
2017-01-05T00:35:32.572Z,998.42
2017-01-05T00:36:32.597Z,998.45
2017-01-05T00:37:32.626Z,998.48
2017-01-05T00:38:32.651Z,998.44
2017-01-05T00:39:32.679Z,998.49
2017-01-05T00:40:32.704Z,998.48
2017-01-05T00:41:32.729Z,998.49
2017-01-05T00:42:32.758Z,998.55
2017-01-05T00:43:32.782Z,998.52
2017-01-05T00:44:32.811Z,998.55
2017-01-05T00:45:32.835Z,998.55
2017-01-05T00:46:32.864Z,998.55
2017-01-05T00:47:32.889Z,998.53
2017-01-05T00:48:32.917Z,998.51
2017-01-05T00:49:32.943Z,998.52
2017-01-05T00:50:32.971Z,998.5
2017-01-05T00:51:32.996Z,998.53
2017-01-05T00:52:33.020Z,998.56
2017-01-05T00:53:33.049Z,998.56
2017-01-05T00:54:33.070Z,998.61
2017-01-05T00:55:33.102Z,998.64
2017-01-05T00:56:33.127Z,998.61
2017-01-05T00:57:33.156Z,998.61
2017-01-05T00:58:33.180Z,998.65
2017-01-05T00:59:33.205Z,998.67
2017-01-05T01:00:33.233Z,998.67
2017-01-05T01:01:33.259Z,998.77
2017-01-05T01:02:33.287Z,998.79
2017-01-05T01:03:33.309Z,998.8
2017-01-05T01:04:33.332Z,998.82
2017-01-05T01:05:33.366Z,998.84
2017-01-05T01:06:33.389Z,998.81
2017-01-05T01:07:33.418Z,998.82
2017-01-05T01:08:33.442Z,998.86
2017-01-05T01:09:33.472Z,998.89
2017-01-05T01:10:33.492Z,998.91
2017-01-05T01:11:33.521Z,998.91
2017-01-05T01:12:33.550Z,998.94
2017-01-05T01:13:33.575Z,998.93
2017-01-05T01:14:33.598Z,998.95
2017-01-05T01:15:33.628Z,998.97
2017-01-05T01:16:33.652Z,999.01
2017-01-05T01:17:33.680Z,999
2017-01-05T01:18:33.707Z,998.98
2017-01-05T01:19:33.730Z,999
2017-01-05T01:20:33.759Z,999.01
2017-01-05T01:21:33.783Z,998.99
2017-01-05T01:22:33.816Z,998.98
2017-01-05T01:23:33.836Z,999.04
2017-01-05T01:24:33.861Z,999.06
2017-01-05T01:25:33.889Z,999.04
2017-01-05T01:26:33.910Z,999.08
2017-01-05T01:27:33.943Z,999.12
2017-01-05T01:28:33.967Z,999.09
2017-01-05T01:29:33.992Z,999.12
2017-01-05T01:30:34.021Z,999.15
2017-01-05T01:31:34.045Z,999.1
2017-01-05T01:32:34.070Z,999.16
2017-01-05T01:33:34.099Z,999.16
2017-01-05T01:34:34.123Z,999.25
2017-01-05T01:35:34.152Z,999.28
2017-01-05T01:36:34.178Z,999.26
2017-01-05T01:37:34.201Z,999.27
2017-01-05T01:38:34.231Z,999.26
2017-01-05T01:39:34.255Z,999.24
2017-01-05T01:40:34.280Z,999.26
2017-01-05T01:41:34.308Z,999.24
2017-01-05T01:42:34.333Z,999.23
2017-01-05T01:43:34.358Z,999.28
2017-01-05T01:44:34.387Z,999.31
2017-01-05T01:45:34.411Z,999.3
2017-01-05T01:46:34.438Z,999.28
2017-01-05T01:47:34.462Z,999.32
2017-01-05T01:48:34.489Z,999.39
2017-01-05T01:49:34.518Z,999.4
2017-01-05T01:50:34.542Z,999.35
2017-01-05T01:51:34.567Z,999.4
2017-01-05T01:52:34.596Z,999.4
2017-01-05T01:53:34.621Z,999.43
2017-01-05T01:54:34.646Z,999.41
2017-01-05T01:55:34.674Z,999.42
2017-01-05T01:56:34.699Z,999.36
2017-01-05T01:57:34.727Z,999.31
2017-01-05T01:58:34.756Z,999.36
2017-01-05T01:59:34.779Z,999.37
2017-01-05T02:00:34.805Z,999.42
2017-01-05T02:01:34.830Z,999.45
2017-01-05T02:02:34.853Z,999.41
2017-01-05T02:03:34.883Z,999.46
2017-01-05T02:04:34.908Z,999.46
2017-01-05T02:05:34.937Z,999.53
2017-01-05T02:06:34.962Z,999.57
2017-01-05T02:07:34.987Z,999.58
2017-01-05T02:08:35.015Z,999.61
2017-01-05T02:09:35.036Z,999.63
2017-01-05T02:10:35.065Z,999.62
2017-01-05T02:11:35.093Z,999.63
2017-01-05T02:12:35.119Z,999.66
2017-01-05T02:13:35.143Z,999.65
2017-01-05T02:14:35.172Z,999.62
2017-01-05T02:15:35.197Z,999.59
2017-01-05T02:16:35.221Z,999.6
2017-01-05T02:17:35.250Z,999.59
2017-01-05T02:18:35.275Z,999.6
2017-01-05T02:19:35.303Z,999.58
2017-01-05T02:20:35.328Z,999.62
2017-01-05T02:21:35.353Z,999.6
2017-01-05T02:22:35.378Z,999.59
2017-01-05T02:23:35.406Z,999.62
2017-01-05T02:24:35.431Z,999.62
2017-01-05T02:25:35.456Z,999.58
2017-01-05T02:26:35.485Z,999.62
2017-01-05T02:27:35.509Z,999.63
2017-01-05T02:28:35.537Z,999.62
2017-01-05T02:29:35.563Z,999.6
2017-01-05T02:30:35.587Z,999.6
2017-01-05T02:31:35.612Z,999.61
2017-01-05T02:32:35.641Z,999.62
2017-01-05T02:33:35.666Z,999.59
2017-01-05T02:34:35.694Z,999.61
2017-01-05T02:35:35.719Z,999.62
2017-01-05T02:36:35.744Z,999.61
2017-01-05T02:37:35.772Z,999.69
2017-01-05T02:38:35.797Z,999.7
2017-01-05T02:39:35.821Z,999.71
2017-01-05T02:40:35.855Z,999.76
2017-01-05T02:41:35.871Z,999.76
2017-01-05T02:42:35.900Z,999.77
2017-01-05T02:43:35.928Z,999.79
2017-01-05T02:44:35.953Z,999.79
2017-01-05T02:45:35.978Z,999.8
2017-01-05T02:46:36.005Z,999.84
2017-01-05T02:47:36.032Z,999.87
2017-01-05T02:48:36.052Z,999.88
2017-01-05T02:49:36.085Z,999.86
2017-01-05T02:50:36.109Z,999.89
2017-01-05T02:51:36.134Z,999.89
2017-01-05T02:52:36.163Z,999.94
2017-01-05T02:53:36.192Z,999.92
2017-01-05T02:54:36.213Z,1000
2017-01-05T02:55:36.241Z,1000.01
2017-01-05T02:56:36.267Z,1000.05
2017-01-05T02:57:36.291Z,1000.06
2017-01-05T02:58:36.319Z,1000.11
2017-01-05T02:59:36.344Z,1000.13
2017-01-05T03:00:36.369Z,1000.16
2017-01-05T03:01:36.397Z,1000.18
2017-01-05T03:02:36.422Z,1000.2
2017-01-05T03:03:36.447Z,1000.21
2017-01-05T03:04:36.476Z,1000.2
2017-01-05T03:05:36.500Z,1000.25
2017-01-05T03:06:36.525Z,1000.23
2017-01-05T03:07:36.552Z,1000.23
2017-01-05T03:08:36.579Z,1000.2
2017-01-05T03:09:36.603Z,1000.22
2017-01-05T03:10:36.632Z,1000.19
2017-01-05T03:11:36.656Z,1000.18
2017-01-05T03:12:36.681Z,1000.17
2017-01-05T03:13:36.710Z,1000.18
2017-01-05T03:14:36.735Z,1000.2
2017-01-05T03:15:36.760Z,1000.16
2017-01-05T03:16:36.784Z,1000.16
2017-01-05T03:17:36.813Z,1000.16
2017-01-05T03:18:36.838Z,1000.12
2017-01-05T03:19:36.858Z,1000.14
2017-01-05T03:20:36.892Z,1000.18
2017-01-05T03:21:36.916Z,1000.19
2017-01-05T03:22:36.940Z,1000.17
2017-01-05T03:23:36.969Z,1000.19
2017-01-05T03:24:36.994Z,1000.15
2017-01-05T03:25:37.019Z,1000.18
2017-01-05T03:26:37.044Z,1000.21
2017-01-05T03:27:37.073Z,1000.24
2017-01-05T03:28:37.097Z,1000.23
2017-01-05T03:29:37.122Z,1000.25
2017-01-05T03:30:37.146Z,1000.25
2017-01-05T03:31:37.176Z,1000.29
2017-01-05T03:32:37.200Z,1000.27
2017-01-05T03:33:37.229Z,1000.3
2017-01-05T03:34:37.254Z,1000.3
2017-01-05T03:35:37.280Z,1000.35
2017-01-05T03:36:37.307Z,1000.37
2017-01-05T03:37:37.331Z,1000.38
2017-01-05T03:38:37.356Z,1000.39
2017-01-05T03:39:37.382Z,1000.37
2017-01-05T03:40:37.410Z,1000.35
2017-01-05T03:41:37.431Z,1000.4
2017-01-05T03:42:37.464Z,1000.35
2017-01-05T03:43:37.488Z,1000.41
2017-01-05T03:44:37.513Z,1000.39
2017-01-05T03:45:37.538Z,1000.4
2017-01-05T03:46:37.562Z,1000.44
2017-01-05T03:47:37.591Z,1000.49
2017-01-05T03:48:37.616Z,1000.46
2017-01-05T03:49:37.636Z,1000.46
2017-01-05T03:50:37.669Z,1000.44
2017-01-05T03:51:37.695Z,1000.5
2017-01-05T03:52:37.714Z,1000.49
2017-01-05T03:53:37.749Z,1000.5
2017-01-05T03:54:37.777Z,1000.54
2017-01-05T03:55:37.797Z,1000.55
2017-01-05T03:56:37.822Z,1000.58
2017-01-05T03:57:37.846Z,1000.61
2017-01-05T03:58:37.875Z,1000.63
2017-01-05T03:59:37.900Z,1000.67
2017-01-05T04:00:37.929Z,1000.61
2017-01-05T04:01:37.953Z,1000.62
2017-01-05T04:02:37.978Z,1000.64
2017-01-05T04:03:38.007Z,1000.68
2017-01-05T04:04:38.032Z,1000.68
2017-01-05T04:05:38.056Z,1000.65
2017-01-05T04:06:38.081Z,1000.62
2017-01-05T04:07:38.110Z,1000.7
2017-01-05T04:08:38.134Z,1000.66
2017-01-05T04:09:38.164Z,1000.66
2017-01-05T04:10:38.188Z,1000.67
2017-01-05T04:11:38.213Z,1000.7
2017-01-05T04:12:38.241Z,1000.72
2017-01-05T04:13:38.262Z,1000.74
2017-01-05T04:14:38.291Z,1000.77
2017-01-05T04:15:38.315Z,1000.71
2017-01-05T04:16:38.340Z,1000.69
2017-01-05T04:17:38.365Z,1000.72
2017-01-05T04:18:38.394Z,1000.69
2017-01-05T04:19:38.415Z,1000.69
2017-01-05T04:20:38.445Z,1000.73
2017-01-05T04:21:38.472Z,1000.71
2017-01-05T04:22:38.496Z,1000.71
2017-01-05T04:23:38.520Z,1000.71
2017-01-05T04:24:38.546Z,1000.74
2017-01-05T04:25:38.578Z,1000.7
2017-01-05T04:26:38.600Z,1000.69
2017-01-05T04:27:38.624Z,1000.74
2017-01-05T04:28:38.649Z,1000.78
2017-01-05T04:29:38.677Z,1000.74
2017-01-05T04:30:38.702Z,1000.73
2017-01-05T04:31:38.731Z,1000.7
2017-01-05T04:32:38.755Z,1000.69
2017-01-05T04:33:38.780Z,1000.72
2017-01-05T04:34:38.803Z,1000.68
2017-01-05T04:35:38.830Z,1000.73
2017-01-05T04:36:38.859Z,1000.77
2017-01-05T04:37:38.883Z,1000.73
2017-01-05T04:38:38.908Z,1000.69
2017-01-05T04:39:38.932Z,1000.67
2017-01-05T04:40:38.961Z,1000.73
2017-01-05T04:41:38.986Z,1000.72
2017-01-05T04:42:39.011Z,1000.78
2017-01-05T04:43:39.039Z,1000.76
2017-01-05T04:44:39.064Z,1000.82
2017-01-05T04:45:39.089Z,1000.83
2017-01-05T04:46:39.113Z,1000.84
2017-01-05T04:47:39.143Z,1000.87
2017-01-05T04:48:39.167Z,1000.88
2017-01-05T04:49:39.192Z,1000.83
2017-01-05T04:50:39.211Z,1000.81
2017-01-05T04:51:39.246Z,1000.88
2017-01-05T04:52:39.269Z,1000.88
2017-01-05T04:53:39.294Z,1000.88
2017-01-05T04:54:39.319Z,1000.87
2017-01-05T04:55:39.348Z,1000.87
2017-01-05T04:56:39.373Z,1000.89
2017-01-05T04:57:39.397Z,1000.91
2017-01-05T04:58:39.427Z,1000.93
2017-01-05T04:59:39.451Z,1000.92
2017-01-05T05:00:39.476Z,1000.98
2017-01-05T05:01:39.500Z,1001.08
2017-01-05T05:02:39.529Z,1001.06
2017-01-05T05:03:39.554Z,1001.03
2017-01-05T05:04:39.578Z,1001.02
2017-01-05T05:05:39.603Z,1001.07
2017-01-05T05:06:39.632Z,1001.06
2017-01-05T05:07:39.652Z,1001.13
2017-01-05T05:08:39.680Z,1001.13
2017-01-05T05:09:39.706Z,1001.12
2017-01-05T05:10:39.738Z,1001.13
2017-01-05T05:11:39.759Z,1001.17
2017-01-05T05:12:39.784Z,1001.17
2017-01-05T05:13:39.809Z,1001.21
2017-01-05T05:14:39.832Z,1001.22
2017-01-05T05:15:39.862Z,1001.22
2017-01-05T05:16:39.895Z,1001.15
2017-01-05T05:17:39.911Z,1001.17
2017-01-05T05:18:39.940Z,1001.16
2017-01-05T05:19:39.965Z,1001.13
2017-01-05T05:20:39.990Z,1001.13
2017-01-05T05:21:40.019Z,1001.14
2017-01-05T05:22:40.043Z,1001.17
2017-01-05T05:23:40.068Z,1001.13
2017-01-05T05:24:40.092Z,1001.1
2017-01-05T05:25:40.117Z,1001.05
2017-01-05T05:26:40.146Z,1001.14
2017-01-05T05:27:40.175Z,1001.17
2017-01-05T05:28:40.195Z,1001.11
2017-01-05T05:29:40.224Z,1001.13
2017-01-05T05:30:40.249Z,1001.09
2017-01-05T05:31:40.273Z,1001.11
2017-01-05T05:32:40.298Z,1001.12
2017-01-05T05:33:40.327Z,1001.1
2017-01-05T05:34:40.353Z,1001.12
2017-01-05T05:35:40.376Z,1001.09
2017-01-05T05:36:40.405Z,1001.09
2017-01-05T05:37:40.429Z,1001.07
2017-01-05T05:38:40.454Z,1001.09
2017-01-05T05:39:40.478Z,1001.07
2017-01-05T05:40:40.506Z,1001.08
2017-01-05T05:41:40.532Z,1001.16
2017-01-05T05:42:40.557Z,1001.13
2017-01-05T05:43:40.582Z,1001.15
2017-01-05T05:44:40.610Z,1001.13
2017-01-05T05:45:40.639Z,1001.14
2017-01-05T05:46:40.660Z,1001.13
2017-01-05T05:47:40.687Z,1001.14
2017-01-05T05:48:40.713Z,1001.16
2017-01-05T05:49:40.738Z,1001.19
2017-01-05T05:50:40.762Z,1001.23
2017-01-05T05:51:40.789Z,1001.21
2017-01-05T05:52:40.816Z,1001.19
2017-01-05T05:53:40.841Z,1001.2
2017-01-05T05:54:40.866Z,1001.19
2017-01-05T05:55:40.896Z,1001.13
2017-01-05T05:56:40.919Z,1001.14
2017-01-05T05:57:40.944Z,1001.11
2017-01-05T05:58:40.973Z,1001.14
2017-01-05T05:59:40.997Z,1001.17
2017-01-05T06:00:41.021Z,1001.22
2017-01-05T06:01:41.047Z,1001.19
2017-01-05T06:02:41.075Z,1001.26
2017-01-05T06:03:41.099Z,1001.24
2017-01-05T06:04:41.124Z,1001.26
2017-01-05T06:05:41.153Z,1001.28
2017-01-05T06:06:41.178Z,1001.26
2017-01-05T06:07:41.203Z,1001.28
2017-01-05T06:08:41.228Z,1001.32
2017-01-05T06:09:41.256Z,1001.33
2017-01-05T06:10:41.280Z,1001.36
2017-01-05T06:11:41.305Z,1001.37
2017-01-05T06:12:41.334Z,1001.41
2017-01-05T06:13:41.358Z,1001.45
2017-01-05T06:14:41.379Z,1001.49
2017-01-05T06:15:41.412Z,1001.54
2017-01-05T06:16:41.436Z,1001.59
2017-01-05T06:17:41.460Z,1001.62
2017-01-05T06:18:41.485Z,1001.64
2017-01-05T06:19:41.513Z,1001.58
2017-01-05T06:20:41.538Z,1001.62
2017-01-05T06:21:41.563Z,1001.64
2017-01-05T06:22:41.594Z,1001.64
2017-01-05T06:23:41.615Z,1001.69
2017-01-05T06:24:41.649Z,1001.67
2017-01-05T06:25:41.668Z,1001.71
2017-01-05T06:26:41.693Z,1001.7
2017-01-05T06:27:41.718Z,1001.73
2017-01-05T06:28:41.748Z,1001.7
2017-01-05T06:29:41.773Z,1001.71
2017-01-05T06:30:41.796Z,1001.71
2017-01-05T06:31:41.824Z,1001.71
2017-01-05T06:32:41.849Z,1001.73
2017-01-05T06:33:41.874Z,1001.74
2017-01-05T06:34:41.902Z,1001.72
2017-01-05T06:35:41.927Z,1001.72
2017-01-05T06:36:41.952Z,1001.7
2017-01-05T06:37:41.980Z,1001.74
2017-01-05T06:38:42.007Z,1001.71
2017-01-05T06:39:42.030Z,1001.73
2017-01-05T06:40:42.059Z,1001.7
2017-01-05T06:41:42.083Z,1001.69
2017-01-05T06:42:42.112Z,1001.73
2017-01-05T06:43:42.132Z,1001.78
2017-01-05T06:44:42.161Z,1001.8
2017-01-05T06:45:42.186Z,1001.87
2017-01-05T06:46:42.215Z,1001.88
2017-01-05T06:47:42.239Z,1001.87
2017-01-05T06:48:42.263Z,1001.87
2017-01-05T06:49:42.293Z,1001.87
2017-01-05T06:50:42.317Z,1001.87
2017-01-05T06:51:42.346Z,1001.92
2017-01-05T06:52:42.371Z,1001.91
2017-01-05T06:53:42.395Z,1001.93
2017-01-05T06:54:42.424Z,1001.92
2017-01-05T06:55:42.449Z,1001.91
2017-01-05T06:56:42.473Z,1001.95
2017-01-05T06:57:42.502Z,1001.96
2017-01-05T06:58:42.527Z,1001.96
2017-01-05T06:59:42.552Z,1001.97
2017-01-05T07:00:42.579Z,1001.95
2017-01-05T07:01:42.605Z,1001.97
2017-01-05T07:02:42.633Z,1001.99
2017-01-05T07:03:42.658Z,1001.97
2017-01-05T07:04:42.683Z,1002.01
2017-01-05T07:05:42.712Z,1001.99
2017-01-05T07:06:42.737Z,1002.03
2017-01-05T07:07:42.765Z,1002.05
2017-01-05T07:08:42.785Z,1002.08
2017-01-05T07:09:42.814Z,1002.06
2017-01-05T07:10:42.843Z,1002.06
2017-01-05T07:11:42.868Z,1002.09
2017-01-05T07:12:42.897Z,1002.13
2017-01-05T07:13:42.922Z,1002.14
2017-01-05T07:14:42.947Z,1002.13
2017-01-05T07:15:42.975Z,1002.16
2017-01-05T07:16:43.001Z,1002.16
2017-01-05T07:17:43.029Z,1002.14
2017-01-05T07:18:43.053Z,1002.17
2017-01-05T07:19:43.074Z,1002.15
2017-01-05T07:20:43.107Z,1002.2
2017-01-05T07:21:43.131Z,1002.2
2017-01-05T07:22:43.159Z,1002.23
2017-01-05T07:23:43.181Z,1002.23
2017-01-05T07:24:43.206Z,1002.3
2017-01-05T07:25:43.238Z,1002.29
2017-01-05T07:26:43.263Z,1002.3
2017-01-05T07:27:43.287Z,1002.34
2017-01-05T07:28:43.316Z,1002.33
2017-01-05T07:29:43.343Z,1002.4
2017-01-05T07:30:43.370Z,1002.38
2017-01-05T07:31:43.395Z,1002.4
2017-01-05T07:32:43.424Z,1002.43
2017-01-05T07:33:43.448Z,1002.44
2017-01-05T07:34:43.473Z,1002.45
2017-01-05T07:35:43.501Z,1002.44
2017-01-05T07:36:43.526Z,1002.46
2017-01-05T07:37:43.555Z,1002.47
2017-01-05T07:38:43.580Z,1002.37
2017-01-05T07:39:43.602Z,1002.37
2017-01-05T07:40:43.634Z,1002.41
2017-01-05T07:41:43.659Z,1002.44
2017-01-05T07:42:43.688Z,1002.45
2017-01-05T07:43:43.712Z,1002.53
2017-01-05T07:44:43.741Z,1002.53
2017-01-05T07:45:43.765Z,1002.57
2017-01-05T07:46:43.790Z,1002.54
2017-01-05T07:47:43.819Z,1002.55
2017-01-05T07:48:43.844Z,1002.59
2017-01-05T07:49:43.872Z,1002.67
2017-01-05T07:50:43.897Z,1002.68
2017-01-05T07:51:43.926Z,1002.68
2017-01-05T07:52:43.950Z,1002.7
2017-01-05T07:53:43.975Z,1002.66
2017-01-05T07:54:44.004Z,1002.71
2017-01-05T07:55:44.029Z,1002.69
2017-01-05T07:56:44.058Z,1002.73
2017-01-05T07:57:44.083Z,1002.75
2017-01-05T07:58:44.112Z,1002.77
2017-01-05T07:59:44.136Z,1002.75
2017-01-05T08:00:44.161Z,1002.79
2017-01-05T08:01:44.190Z,1002.79
2017-01-05T08:02:44.214Z,1002.8
2017-01-05T08:03:44.239Z,1002.77
2017-01-05T08:04:44.268Z,1002.81
2017-01-05T08:05:44.294Z,1002.85
2017-01-05T08:06:44.321Z,1002.87
2017-01-05T08:07:44.346Z,1002.89
2017-01-05T08:08:44.375Z,1002.86
2017-01-05T08:09:44.399Z,1002.92
2017-01-05T08:10:44.428Z,1002.97
2017-01-05T08:11:44.453Z,1002.88
2017-01-05T08:12:44.478Z,1002.93
2017-01-05T08:13:44.505Z,1002.94
2017-01-05T08:14:44.531Z,1003
2017-01-05T08:15:44.560Z,1003.04
2017-01-05T08:16:44.584Z,1003.03
2017-01-05T08:17:44.614Z,1003.08
2017-01-05T08:18:44.638Z,1003.08
2017-01-05T08:19:44.667Z,1003.1
2017-01-05T08:20:44.692Z,1003.07
2017-01-05T08:21:44.721Z,1003.1
2017-01-05T08:22:44.746Z,1003.13
2017-01-05T08:23:44.771Z,1003.12
2017-01-05T08:24:44.799Z,1003.24
2017-01-05T08:25:44.824Z,1003.3
2017-01-05T08:26:44.848Z,1003.29
2017-01-05T08:27:44.878Z,1003.28
2017-01-05T08:28:44.898Z,1003.33
2017-01-05T08:29:44.931Z,1003.31
2017-01-05T08:30:44.956Z,1003.28
2017-01-05T08:31:44.984Z,1003.29
2017-01-05T08:32:45.010Z,1003.31
2017-01-05T08:33:45.034Z,1003.33
2017-01-05T08:34:45.063Z,1003.32
2017-01-05T08:35:45.087Z,1003.33
2017-01-05T08:36:45.116Z,1003.39
2017-01-05T08:37:45.141Z,1003.41
2017-01-05T08:38:45.170Z,1003.42
2017-01-05T08:39:45.195Z,1003.39
2017-01-05T08:40:45.220Z,1003.38
2017-01-05T08:41:45.248Z,1003.43
2017-01-05T08:42:45.277Z,1003.43
2017-01-05T08:43:45.306Z,1003.42
2017-01-05T08:44:45.331Z,1003.45
2017-01-05T08:45:45.356Z,1003.47
2017-01-05T08:46:45.384Z,1003.48
2017-01-05T08:47:45.409Z,1003.53
2017-01-05T08:48:45.434Z,1003.57
2017-01-05T08:49:45.458Z,1003.59
2017-01-05T08:50:45.487Z,1003.61
2017-01-05T08:51:45.515Z,1003.62
2017-01-05T08:52:45.540Z,1003.61
2017-01-05T08:53:45.569Z,1003.65
2017-01-05T08:54:45.593Z,1003.66
2017-01-05T08:55:45.618Z,1003.64
2017-01-05T08:56:45.647Z,1003.62
2017-01-05T08:57:45.672Z,1003.63
2017-01-05T08:58:45.701Z,1003.57
2017-01-05T08:59:45.725Z,1003.58
2017-01-05T09:00:45.754Z,1003.62
2017-01-05T09:01:45.779Z,1003.7
2017-01-05T09:02:45.807Z,1003.74
2017-01-05T09:03:45.832Z,1003.72
2017-01-05T09:04:45.861Z,1003.79
2017-01-05T09:05:45.887Z,1003.75
2017-01-05T09:06:45.911Z,1003.73
2017-01-05T09:07:45.940Z,1003.73
2017-01-05T09:08:45.989Z,1003.77
2017-01-05T09:09:46.040Z,1003.75
2017-01-05T09:10:46.014Z,1003.79
2017-01-05T09:11:46.047Z,1003.75
2017-01-05T09:12:46.073Z,1003.77
2017-01-05T09:13:46.092Z,1003.81
2017-01-05T09:14:46.129Z,1003.88
2017-01-05T09:15:46.148Z,1003.89
2017-01-05T09:16:46.178Z,1003.98
2017-01-05T09:17:46.204Z,1004.05
2017-01-05T09:18:46.227Z,1004.06
2017-01-05T09:19:46.256Z,1003.99
2017-01-05T09:20:46.285Z,1003.99
2017-01-05T09:21:46.310Z,1003.98
2017-01-05T09:22:46.339Z,1004.03
2017-01-05T09:23:46.364Z,1004.04
2017-01-05T09:24:46.388Z,1004.14
2017-01-05T09:25:46.417Z,1004.08
2017-01-05T09:26:46.441Z,1004.06
2017-01-05T09:27:46.472Z,1004.06
2017-01-05T09:28:46.495Z,1004.09
2017-01-05T09:29:46.524Z,1004.14
2017-01-05T09:30:46.546Z,1004.21
2017-01-05T09:31:46.574Z,1004.2
2017-01-05T09:32:46.602Z,1004.19
2017-01-05T09:33:46.631Z,1004.22
2017-01-05T09:34:46.655Z,1004.29
2017-01-05T09:35:46.678Z,1004.3
2017-01-05T09:36:46.709Z,1004.29
2017-01-05T09:37:46.733Z,1004.3
2017-01-05T09:38:46.763Z,1004.31
2017-01-05T09:39:46.787Z,1004.32
2017-01-05T09:40:46.816Z,1004.31
2017-01-05T09:41:46.841Z,1004.31
2017-01-05T09:42:46.861Z,1004.33
2017-01-05T09:43:46.894Z,1004.36
2017-01-05T09:44:46.926Z,1004.36
2017-01-05T09:45:46.949Z,1004.4
2017-01-05T09:46:46.972Z,1004.41
2017-01-05T09:47:47.001Z,1004.48
2017-01-05T09:48:47.026Z,1004.41
2017-01-05T09:49:47.055Z,1004.4
2017-01-05T09:50:47.079Z,1004.43
2017-01-05T09:51:47.106Z,1004.48
2017-01-05T09:52:47.134Z,1004.52
2017-01-05T09:53:47.157Z,1004.5
2017-01-05T09:54:47.187Z,1004.5
2017-01-05T09:55:47.211Z,1004.41
2017-01-05T09:56:47.236Z,1004.34
2017-01-05T09:57:47.264Z,1004.4
2017-01-05T09:58:47.289Z,1004.37
2017-01-05T09:59:47.318Z,1004.41
2017-01-05T10:00:47.342Z,1004.37
2017-01-05T10:01:47.371Z,1004.37
2017-01-05T10:02:47.397Z,1004.35
2017-01-05T10:03:47.421Z,1004.31
2017-01-05T10:04:47.449Z,1004.33
2017-01-05T10:05:47.478Z,1004.35
2017-01-05T10:06:47.503Z,1004.4
2017-01-05T10:07:47.531Z,1004.4
2017-01-05T10:08:47.552Z,1004.39
2017-01-05T10:09:47.585Z,1004.37
2017-01-05T10:10:47.613Z,1004.39
2017-01-05T10:11:47.635Z,1004.39
2017-01-05T10:12:47.663Z,1004.41
2017-01-05T10:13:47.688Z,1004.4
2017-01-05T10:14:47.717Z,1004.44
2017-01-05T10:15:47.742Z,1004.44
2017-01-05T10:16:47.770Z,1004.44
2017-01-05T10:17:47.795Z,1004.42
2017-01-05T10:18:47.824Z,1004.39
2017-01-05T10:19:47.848Z,1004.46
2017-01-05T10:20:47.877Z,1004.44
2017-01-05T10:21:47.902Z,1004.46
2017-01-05T10:22:47.927Z,1004.43
2017-01-05T10:23:47.955Z,1004.38
2017-01-05T10:24:47.979Z,1004.43
2017-01-05T10:25:48.008Z,1004.41
2017-01-05T10:26:48.034Z,1004.41
2017-01-05T10:27:48.061Z,1004.45
2017-01-05T10:28:48.087Z,1004.35
2017-01-05T10:29:48.112Z,1004.4
2017-01-05T10:30:48.140Z,1004.42
2017-01-05T10:31:48.165Z,1004.49
2017-01-05T10:32:48.195Z,1004.45
2017-01-05T10:33:48.214Z,1004.42
2017-01-05T10:34:48.247Z,1004.5
2017-01-05T10:35:48.272Z,1004.51
2017-01-05T10:36:48.301Z,1004.44
2017-01-05T10:37:48.325Z,1004.43
2017-01-05T10:38:48.346Z,1004.44
2017-01-05T10:39:48.379Z,1004.47
2017-01-05T10:40:48.399Z,1004.48
2017-01-05T10:41:48.432Z,1004.56
2017-01-05T10:42:48.457Z,1004.52
2017-01-05T10:43:48.486Z,1004.47
2017-01-05T10:44:48.508Z,1004.51
2017-01-05T10:45:48.539Z,1004.56
2017-01-05T10:46:48.564Z,1004.52
2017-01-05T10:47:48.592Z,1004.56
2017-01-05T10:48:48.616Z,1004.59
2017-01-05T10:49:48.642Z,1004.59
2017-01-05T10:50:48.671Z,1004.5
2017-01-05T10:51:48.696Z,1004.64
2017-01-05T10:52:48.724Z,1004.68
2017-01-05T10:53:48.748Z,1004.71
2017-01-05T10:54:48.777Z,1004.61
2017-01-05T10:55:48.802Z,1004.62
2017-01-05T10:56:48.822Z,1004.61
2017-01-05T10:57:48.855Z,1004.68
2017-01-05T10:58:48.880Z,1004.73
2017-01-05T10:59:48.908Z,1004.74
2017-01-05T11:00:48.933Z,1004.79
2017-01-05T11:01:48.961Z,1004.73
2017-01-05T11:02:48.987Z,1004.68
2017-01-05T11:03:49.011Z,1004.7
2017-01-05T11:04:49.036Z,1004.72
2017-01-05T11:05:49.068Z,1004.79
2017-01-05T11:06:49.094Z,1004.76
2017-01-05T11:07:49.123Z,1004.87
2017-01-05T11:08:49.147Z,1004.78
2017-01-05T11:09:49.172Z,1004.84
2017-01-05T11:10:49.197Z,1004.86
2017-01-05T11:11:49.225Z,1004.88
2017-01-05T11:12:49.250Z,1004.86
2017-01-05T11:13:49.278Z,1004.85
2017-01-05T11:14:49.304Z,1004.93
2017-01-05T11:15:49.332Z,1005
2017-01-05T11:16:49.356Z,1004.89
2017-01-05T11:17:49.382Z,1004.9
2017-01-05T11:18:49.414Z,1004.88
2017-01-05T11:19:49.435Z,1005
2017-01-05T11:20:49.459Z,1004.92
2017-01-05T11:21:49.487Z,1004.93
2017-01-05T11:22:49.513Z,1004.89
2017-01-05T11:23:49.542Z,1004.89
2017-01-05T11:24:49.566Z,1004.9
2017-01-05T11:25:49.595Z,1004.9
2017-01-05T11:26:49.620Z,1004.89
2017-01-05T11:27:49.648Z,1004.9
2017-01-05T11:28:49.673Z,1004.91
2017-01-05T11:29:49.702Z,1004.91
2017-01-05T11:30:49.726Z,1004.92
2017-01-05T11:31:49.756Z,1004.92
2017-01-05T11:32:49.784Z,1004.86
2017-01-05T11:33:49.801Z,1004.9
2017-01-05T11:34:49.833Z,1004.86
2017-01-05T11:35:49.858Z,1004.95
2017-01-05T11:36:49.886Z,1004.92
2017-01-05T11:37:49.911Z,1005.2
2017-01-05T11:38:49.936Z,1004.94
2017-01-05T11:39:49.965Z,1004.92
2017-01-05T11:40:49.990Z,1004.96
2017-01-05T11:41:50.019Z,1004.98
2017-01-05T11:42:50.043Z,1004.99
2017-01-05T11:43:50.068Z,1005.01
2017-01-05T11:44:50.096Z,1005.04
2017-01-05T11:45:50.118Z,1005.03
2017-01-05T11:46:50.151Z,1005.09
2017-01-05T11:47:50.174Z,1005.06
2017-01-05T11:48:50.204Z,1005.07
2017-01-05T11:49:50.228Z,1005.12
2017-01-05T11:50:50.253Z,1005.15
2017-01-05T11:51:50.281Z,1005.18
2017-01-05T11:52:50.306Z,1005.2
2017-01-05T11:53:50.338Z,1005.22
2017-01-05T11:54:50.355Z,1005.27
2017-01-05T11:55:50.388Z,1005.23
2017-01-05T11:56:50.411Z,1005.22
2017-01-05T11:57:50.440Z,1005.28
2017-01-05T11:58:50.466Z,1005.26
2017-01-05T11:59:50.491Z,1005.35
2017-01-05T12:00:50.519Z,1005.42
2017-01-05T12:01:50.544Z,1005.41
2017-01-05T12:02:50.573Z,1005.35
2017-01-05T12:03:50.598Z,1005.34
2017-01-05T12:04:50.623Z,1005.36
2017-01-05T12:05:50.651Z,1005.27
2017-01-05T12:06:50.677Z,1005.32
2017-01-05T12:07:50.700Z,1005.4
2017-01-05T12:08:50.728Z,1005.4
2017-01-05T12:09:50.754Z,1005.44
2017-01-05T12:10:50.782Z,1005.43
2017-01-05T12:11:50.806Z,1005.45
2017-01-05T12:12:50.836Z,1005.53
2017-01-05T12:13:50.856Z,1005.48